createdAt,value
2018-08-22T00:01:58.210Z,99.90
2018-08-22T00:04:27.278Z,99.90
2018-08-22T00:09:21.498Z,99.90
2018-08-22T00:11:50.523Z,99.90
2018-08-22T00:14:19.507Z,99.90
2018-08-22T00:16:48.491Z,99.90
2018-08-22T00:19:17.451Z,99.90
2018-08-22T00:21:46.575Z,99.90
2018-08-22T00:24:15.724Z,99.90
2018-08-22T00:26:44.791Z,99.90
2018-08-22T00:29:13.873Z,99.90
2018-08-22T00:31:42.900Z,99.90
2018-08-22T00:34:11.878Z,99.90
2018-08-22T00:36:40.910Z,99.90
2018-08-22T00:39:09.867Z,99.90
2018-08-22T00:41:39.167Z,99.90
2018-08-22T00:44:09.419Z,99.90
2018-08-22T00:46:38.621Z,99.90
2018-08-22T00:49:07.637Z,99.90
2018-08-22T00:51:37.035Z,99.90
2018-08-22T00:54:06.022Z,99.90
2018-08-22T00:56:34.982Z,99.90
2018-08-22T00:59:03.965Z,99.90
2018-08-22T01:01:32.953Z,99.90
2018-08-22T01:04:03.119Z,99.90
2018-08-22T01:06:32.100Z,99.90
2018-08-22T01:09:01.064Z,99.90
2018-08-22T01:11:30.040Z,99.90
2018-08-22T01:13:59.026Z,99.90
2018-08-22T01:16:28.023Z,99.90
2018-08-22T01:18:56.987Z,99.90
2018-08-22T01:21:25.999Z,99.90
2018-08-22T01:23:54.985Z,99.90
2018-08-22T01:26:24.029Z,99.90
2018-08-22T01:28:53.180Z,99.90
2018-08-22T01:31:23.191Z,99.90
2018-08-22T01:33:52.334Z,99.90
2018-08-22T01:36:22.297Z,99.90
2018-08-22T01:41:28.358Z,99.90
2018-08-22T01:43:57.306Z,99.90
2018-08-22T01:46:26.265Z,99.90
2018-08-22T01:51:34.890Z,99.90
2018-08-22T01:54:03.852Z,99.90
2018-08-22T01:56:32.822Z,99.90
2018-08-22T01:59:01.864Z,99.90
2018-08-22T02:01:30.830Z,99.90
2018-08-22T02:03:59.922Z,99.90
2018-08-22T02:06:28.930Z,99.90
2018-08-22T02:08:57.878Z,99.90
2018-08-22T02:11:26.838Z,99.90
2018-08-22T02:13:55.930Z,99.90
2018-08-22T02:16:24.917Z,99.90
2018-08-22T02:18:53.883Z,99.90
2018-08-22T02:21:22.844Z,99.90
2018-08-22T02:23:51.810Z,99.90
2018-08-22T02:26:20.841Z,99.90
2018-08-22T02:28:49.848Z,99.90
2018-08-22T02:31:18.802Z,99.90
2018-08-22T02:33:47.798Z,99.90
2018-08-22T02:36:16.761Z,99.90
2018-08-22T02:38:45.764Z,99.90
2018-08-22T02:41:14.758Z,99.90
2018-08-22T02:43:43.725Z,99.90
2018-08-22T02:46:12.757Z,99.90
2018-08-22T02:48:46.884Z,99.90
2018-08-22T02:51:15.887Z,99.90
2018-08-22T02:53:45.848Z,99.90
2018-08-22T02:56:14.817Z,99.90
2018-08-22T02:58:43.825Z,99.90
2018-08-22T03:01:12.782Z,99.90
2018-08-22T03:03:41.756Z,99.90
2018-08-22T03:06:10.746Z,99.90
2018-08-22T03:08:39.699Z,99.90
2018-08-22T03:11:08.662Z,99.90
2018-08-22T03:13:37.723Z,99.90
2018-08-22T03:16:06.774Z,99.90
2018-08-22T03:18:35.766Z,99.90
2018-08-22T03:21:04.741Z,99.90
2018-08-22T03:23:33.730Z,99.90
2018-08-22T03:26:02.724Z,99.90
2018-08-22T03:28:31.777Z,99.90
2018-08-22T03:31:00.746Z,99.90
2018-08-22T03:33:29.734Z,99.90
2018-08-22T03:35:58.689Z,99.90
2018-08-22T03:38:27.654Z,99.90
2018-08-22T03:40:56.637Z,99.90
2018-08-22T03:43:25.610Z,99.90
2018-08-22T03:45:54.561Z,99.90
2018-08-22T03:48:23.605Z,99.90
2018-08-22T03:50:52.809Z,99.90
2018-08-22T03:53:21.790Z,99.90
2018-08-22T03:55:50.785Z,99.90
2018-08-22T03:58:19.770Z,99.90
2018-08-22T04:00:48.770Z,99.90
2018-08-22T04:03:17.769Z,99.90
2018-08-22T04:05:46.754Z,99.90
2018-08-22T04:08:15.727Z,99.90
2018-08-22T04:10:44.794Z,99.90
2018-08-22T04:13:13.778Z,99.90
2018-08-22T04:15:42.759Z,99.90
2018-08-22T04:18:11.823Z,99.90
2018-08-22T04:20:40.786Z,99.90
2018-08-22T04:23:09.813Z,99.90
2018-08-22T04:25:38.787Z,99.90
2018-08-22T04:28:07.755Z,99.90
2018-08-22T04:30:36.934Z,99.90
2018-08-22T04:33:06.052Z,99.90
2018-08-22T04:35:35.118Z,99.90
2018-08-22T04:38:04.099Z,99.90
2018-08-22T04:40:33.077Z,99.90
2018-08-22T04:43:02.046Z,99.90
2018-08-22T04:45:31.015Z,99.90
2018-08-22T04:47:59.984Z,99.90
2018-08-22T04:50:28.958Z,99.90
2018-08-22T04:52:57.977Z,99.90
2018-08-22T04:55:26.906Z,99.90
2018-08-22T04:57:55.858Z,99.90
2018-08-22T05:00:24.887Z,99.90
2018-08-22T05:02:53.862Z,99.90
2018-08-22T05:05:22.885Z,99.90
2018-08-22T05:07:51.817Z,99.90
2018-08-22T05:10:20.813Z,99.90
2018-08-22T05:12:49.793Z,99.90
2018-08-22T05:15:18.770Z,99.90
2018-08-22T05:17:48.100Z,99.90
2018-08-22T05:20:17.039Z,99.90
2018-08-22T05:22:46.211Z,99.90
2018-08-22T05:25:15.254Z,99.90
2018-08-22T05:27:44.227Z,99.90
2018-08-22T05:30:13.266Z,99.90
2018-08-22T05:32:42.222Z,99.90
2018-08-22T05:35:11.213Z,99.90
2018-08-22T05:37:40.216Z,99.90
2018-08-22T05:40:09.196Z,99.90
2018-08-22T05:42:38.190Z,99.90
2018-08-22T05:45:07.185Z,99.90
2018-08-22T05:47:36.186Z,99.90
2018-08-22T05:50:05.498Z,99.90
2018-08-22T05:52:34.474Z,99.90
2018-08-22T05:55:03.454Z,99.90
2018-08-22T05:57:32.479Z,99.90
2018-08-22T06:00:01.530Z,99.90
2018-08-22T06:02:30.530Z,99.90
2018-08-22T06:04:59.513Z,99.90
2018-08-22T06:07:28.504Z,99.90
2018-08-22T06:09:57.470Z,99.90
2018-08-22T06:12:26.448Z,99.90
2018-08-22T06:14:55.409Z,99.90
2018-08-22T06:17:24.462Z,99.90
2018-08-22T06:19:53.397Z,99.90
2018-08-22T06:22:22.384Z,99.90
2018-08-22T06:24:51.385Z,99.90
2018-08-22T06:27:20.923Z,99.90
2018-08-22T06:29:49.871Z,99.90
2018-08-22T06:32:18.854Z,99.90
2018-08-22T06:34:47.933Z,99.90
2018-08-22T06:37:17.104Z,99.90
2018-08-22T06:39:46.674Z,99.90
2018-08-22T06:42:15.639Z,99.90
2018-08-22T06:44:44.601Z,99.90
2018-08-22T06:47:13.614Z,99.90
2018-08-22T06:49:42.601Z,99.90
2018-08-22T06:52:11.574Z,99.90
2018-08-22T06:54:40.590Z,99.90
2018-08-22T06:57:09.651Z,99.90
2018-08-22T06:59:38.557Z,99.90
2018-08-22T07:02:07.547Z,99.90
2018-08-22T07:04:36.582Z,99.90
2018-08-22T07:07:05.554Z,99.90
2018-08-22T07:09:34.545Z,99.90
2018-08-22T07:12:03.526Z,99.90
2018-08-22T07:14:32.542Z,99.90
2018-08-22T07:17:01.531Z,99.90
2018-08-22T07:19:30.503Z,99.90
2018-08-22T07:21:59.515Z,99.90
2018-08-22T07:24:28.555Z,99.90
2018-08-22T07:26:57.522Z,99.90
2018-08-22T07:29:26.540Z,99.90
2018-08-22T07:31:55.508Z,99.90
2018-08-22T07:34:24.551Z,99.90
2018-08-22T07:36:53.629Z,99.90
2018-08-22T07:39:22.600Z,99.90
2018-08-22T07:41:51.605Z,99.90
2018-08-22T07:44:20.589Z,99.90
2018-08-22T07:46:49.554Z,99.20
2018-08-22T07:49:18.573Z,98.90
2018-08-22T07:54:26.878Z,95.40
2018-08-22T07:56:55.834Z,94.50
2018-08-22T08:02:01.201Z,93.40
2018-08-22T08:04:29.967Z,90.60
2018-08-22T08:06:59.022Z,88.50
2018-08-22T08:09:28.014Z,90.10
2018-08-22T08:11:56.999Z,89.30
2018-08-22T08:14:26.025Z,88.50
2018-08-22T08:16:55.034Z,85.00
2018-08-22T08:19:23.994Z,82.20
2018-08-22T08:21:52.980Z,81.30
2018-08-22T08:24:21.946Z,80.50
2018-08-22T08:26:51.055Z,79.30
2018-08-22T08:29:20.050Z,77.70
2018-08-22T08:31:49.013Z,76.30
2018-08-22T08:34:18.778Z,76.30
2018-08-22T08:36:47.737Z,74.60
2018-08-22T08:39:16.832Z,74.90
2018-08-22T08:41:45.909Z,76.00
2018-08-22T08:44:14.805Z,77.30
2018-08-22T08:46:43.779Z,74.70
2018-08-22T08:49:12.735Z,75.30
2018-08-22T08:51:53.514Z,74.90
2018-08-22T08:54:22.788Z,74.10
2018-08-22T08:59:21.810Z,71.80
2018-08-22T09:01:51.218Z,71.90
2018-08-22T09:04:20.398Z,72.90
2018-08-22T09:06:49.750Z,74.40
2018-08-22T09:09:18.814Z,75.40
2018-08-22T09:11:53.767Z,76.30
2018-08-22T09:14:22.813Z,77.70
2018-08-22T09:16:51.788Z,77.90
2018-08-22T09:19:20.816Z,79.50
2018-08-22T09:21:49.902Z,79.30
2018-08-22T09:24:18.935Z,81.60
2018-08-22T09:26:47.891Z,81.60
2018-08-22T09:29:16.863Z,81.50
2018-08-22T09:31:45.974Z,82.20
2018-08-22T09:34:14.968Z,82.30
2018-08-22T09:36:43.965Z,82.50
2018-08-22T09:39:13.775Z,82.50
2018-08-22T09:41:42.970Z,82.10
2018-08-22T09:44:12.063Z,83.60
2018-08-22T09:46:41.394Z,82.80
2018-08-22T09:49:10.488Z,82.90
2018-08-22T09:51:39.449Z,81.90
2018-08-22T09:54:08.431Z,80.90
2018-08-22T09:56:37.397Z,80.90
2018-08-22T09:59:06.410Z,81.20
2018-08-22T10:01:41.436Z,81.80
2018-08-22T10:04:10.638Z,81.20
2018-08-22T10:06:41.079Z,82.90
2018-08-22T10:09:12.189Z,81.10
2018-08-22T10:11:41.227Z,83.30
2018-08-22T10:14:10.205Z,81.60
2018-08-22T10:16:39.297Z,81.00
2018-08-22T10:19:08.238Z,81.30
2018-08-22T10:21:37.198Z,80.50
2018-08-22T10:24:06.230Z,82.60
2018-08-22T10:26:35.244Z,81.10
2018-08-22T10:29:04.157Z,79.80
2018-08-22T10:31:33.229Z,81.40
2018-08-22T10:34:02.200Z,79.10
2018-08-22T10:36:31.166Z,79.90
2018-08-22T10:39:00.630Z,80.70
2018-08-22T10:41:29.628Z,81.60
2018-08-22T10:43:58.795Z,81.00
2018-08-22T10:46:27.866Z,79.60
2018-08-22T10:48:56.861Z,79.30
2018-08-22T10:51:25.827Z,80.50
2018-08-22T10:53:54.857Z,79.50
2018-08-22T10:56:23.818Z,79.90
2018-08-22T10:58:52.795Z,79.60
2018-08-22T11:01:21.914Z,80.30
2018-08-22T11:03:51.126Z,80.20
2018-08-22T11:06:20.474Z,80.50
2018-08-22T11:08:49.533Z,78.20
2018-08-22T11:11:18.714Z,77.70
2018-08-22T11:13:47.726Z,76.10
2018-08-22T11:16:16.716Z,76.10
2018-08-22T11:18:45.739Z,75.20
2018-08-22T11:21:26.050Z,77.10
2018-08-22T11:24:06.209Z,77.90
2018-08-22T11:26:46.545Z,75.70
2018-08-22T11:29:26.909Z,76.30
2018-08-22T11:32:07.251Z,75.30
2018-08-22T11:34:43.840Z,76.50
2018-08-22T11:37:13.985Z,75.10
2018-08-22T11:39:43.546Z,75.50
2018-08-22T11:42:12.501Z,75.80
2018-08-22T11:44:41.610Z,74.10
2018-08-22T11:47:10.588Z,74.60
2018-08-22T11:49:39.560Z,75.50
2018-08-22T11:52:08.651Z,76.60
2018-08-22T11:54:37.629Z,74.60
2018-08-22T11:57:06.613Z,77.70
2018-08-22T11:59:35.618Z,74.90
2018-08-22T12:02:04.730Z,76.80
2018-08-22T12:04:33.698Z,75.90
2018-08-22T12:07:02.669Z,75.50
2018-08-22T12:09:31.635Z,76.40
2018-08-22T12:12:00.713Z,73.80
2018-08-22T12:14:29.649Z,74.00
2018-08-22T12:16:58.712Z,74.70
2018-08-22T12:19:27.687Z,72.20
2018-08-22T12:24:35.716Z,73.40
2018-08-22T12:27:04.672Z,70.90
2018-08-22T12:29:33.648Z,70.30
2018-08-22T12:32:02.593Z,72.70
2018-08-22T12:34:31.581Z,72.10
2018-08-22T12:37:00.622Z,73.00
2018-08-22T12:42:02.691Z,70.70
2018-08-22T12:44:31.708Z,69.10
2018-08-22T12:47:00.649Z,70.70
2018-08-22T12:49:29.671Z,71.00
2018-08-22T12:51:58.625Z,71.10
2018-08-22T12:54:27.610Z,69.40
2018-08-22T12:56:56.590Z,68.10
2018-08-22T12:59:25.558Z,69.00
2018-08-22T13:01:54.546Z,66.60
2018-08-22T13:04:23.522Z,67.00
2018-08-22T13:06:52.901Z,67.30
2018-08-22T13:09:21.974Z,66.60
2018-08-22T13:11:50.925Z,66.40
2018-08-22T13:14:19.882Z,66.30
2018-08-22T13:16:48.835Z,65.90
2018-08-22T13:19:17.862Z,67.60
2018-08-22T13:21:46.998Z,67.20
2018-08-22T13:24:15.953Z,65.10
2018-08-22T13:26:44.992Z,65.90
2018-08-22T13:29:13.978Z,64.60
2018-08-22T13:31:42.942Z,65.70
2018-08-22T13:34:11.952Z,63.80
2018-08-22T13:36:41.025Z,65.10
2018-08-22T13:39:10.744Z,65.30
2018-08-22T13:41:39.703Z,64.50
2018-08-22T13:44:08.810Z,63.10
2018-08-22T13:46:37.786Z,62.70
2018-08-22T13:49:06.774Z,63.20
2018-08-22T13:51:35.763Z,59.80
2018-08-22T13:54:04.733Z,60.40
2018-08-22T13:56:33.790Z,60.70
2018-08-22T13:59:02.796Z,61.70
2018-08-22T14:01:31.839Z,60.50
2018-08-22T14:04:00.797Z,58.60
2018-08-22T14:06:29.763Z,58.60
2018-08-22T14:08:58.825Z,57.30
2018-08-22T14:11:27.926Z,56.80
2018-08-22T14:13:56.923Z,56.70
2018-08-22T14:16:25.910Z,57.70
2018-08-22T14:18:54.883Z,57.50
2018-08-22T14:21:23.898Z,57.10
2018-08-22T14:23:52.850Z,56.80
2018-08-22T14:26:21.823Z,57.00
2018-08-22T14:28:50.818Z,55.40
2018-08-22T14:31:19.785Z,56.40
2018-08-22T14:33:49.518Z,55.80
2018-08-22T14:36:18.468Z,55.90
2018-08-22T14:38:47.441Z,55.40
2018-08-22T14:41:16.406Z,56.00
2018-08-22T14:43:45.523Z,56.90
2018-08-22T14:46:14.497Z,56.90
2018-08-22T14:48:43.514Z,56.10
2018-08-22T14:51:12.658Z,56.90
2018-08-22T14:53:41.627Z,56.30
2018-08-22T14:56:10.890Z,55.80
2018-08-22T14:58:40.830Z,55.80
2018-08-22T15:01:09.855Z,55.20
2018-08-22T15:03:38.972Z,55.50
2018-08-22T15:06:07.853Z,56.40
2018-08-22T15:08:36.954Z,57.10
2018-08-22T15:11:05.942Z,57.90
2018-08-22T15:13:34.919Z,58.30
2018-08-22T15:16:03.890Z,57.90
2018-08-22T15:18:32.875Z,57.90
2018-08-22T15:21:01.842Z,59.20
2018-08-22T15:23:30.880Z,58.40
2018-08-22T15:25:59.855Z,59.40
2018-08-22T15:28:28.887Z,59.70
2018-08-22T15:30:58.062Z,59.40
2018-08-22T15:33:27.022Z,58.50
2018-08-22T15:35:55.994Z,59.40
2018-08-22T15:38:24.979Z,58.60
2018-08-22T15:40:53.970Z,58.30
2018-08-22T15:43:23.220Z,58.30
2018-08-22T15:45:52.194Z,58.20
2018-08-22T15:48:21.162Z,58.60
2018-08-22T15:50:50.175Z,58.50
2018-08-22T15:53:19.213Z,59.00
2018-08-22T15:55:48.147Z,59.20
2018-08-22T15:58:17.185Z,58.30
2018-08-22T16:00:47.506Z,59.10
2018-08-22T16:03:16.513Z,59.00
2018-08-22T16:05:46.323Z,58.80
2018-08-22T16:08:18.281Z,59.30
2018-08-22T16:10:47.216Z,59.30
2018-08-22T16:13:21.523Z,59.30
2018-08-22T16:15:53.800Z,58.80
2018-08-22T16:18:22.911Z,59.60
2018-08-22T16:21:00.746Z,59.30
2018-08-22T16:23:31.873Z,61.90
2018-08-22T16:26:01.979Z,59.70
2018-08-22T16:28:42.113Z,59.50
2018-08-22T16:31:11.157Z,59.50
2018-08-22T16:33:40.063Z,60.20
2018-08-22T16:36:13.533Z,59.80
2018-08-22T16:38:42.530Z,59.50
2018-08-22T16:41:12.573Z,60.70
2018-08-22T16:43:43.807Z,59.80
2018-08-22T16:46:14.464Z,59.90
2018-08-22T16:48:45.206Z,60.80
2018-08-22T16:51:14.182Z,60.40
2018-08-22T16:54:04.346Z,62.00
2018-08-22T16:56:34.137Z,60.30
2018-08-22T16:59:08.207Z,62.10
2018-08-22T17:01:38.394Z,63.10
2018-08-22T17:04:07.362Z,61.40
2018-08-22T17:06:36.886Z,60.40
2018-08-22T17:09:08.050Z,60.40
2018-08-22T17:11:37.021Z,60.20
2018-08-22T17:14:06.052Z,59.80
2018-08-22T17:16:35.017Z,60.40
2018-08-22T17:19:04.117Z,61.00
2018-08-22T17:21:33.094Z,61.10
2018-08-22T17:24:02.086Z,61.40
2018-08-22T17:26:31.052Z,62.50
2018-08-22T17:29:00.539Z,62.00
2018-08-22T17:31:30.241Z,62.80
2018-08-22T17:34:01.310Z,64.60
2018-08-22T17:36:30.306Z,62.40
2018-08-22T17:39:00.213Z,61.70
2018-08-22T17:41:29.896Z,66.20
2018-08-22T17:44:02.553Z,64.20
2018-08-22T17:46:32.777Z,67.60
2018-08-22T17:49:01.773Z,65.60
2018-08-22T17:51:30.762Z,62.60
2018-08-22T17:53:59.840Z,63.90
2018-08-22T17:56:28.823Z,63.30
2018-08-22T17:58:57.821Z,65.70
2018-08-22T18:01:29.158Z,66.10
2018-08-22T18:03:58.153Z,68.30
2018-08-22T18:06:27.208Z,66.10
2018-08-22T18:08:56.142Z,65.60
2018-08-22T18:11:25.243Z,67.00
2018-08-22T18:13:57.032Z,66.20
2018-08-22T18:16:25.986Z,66.30
2018-08-22T18:18:55.124Z,66.50
2018-08-22T18:21:27.942Z,66.80
2018-08-22T18:23:57.640Z,66.80
2018-08-22T18:26:26.631Z,68.30
2018-08-22T18:28:55.709Z,68.20
2018-08-22T18:31:24.705Z,68.40
2018-08-22T18:33:59.989Z,69.80
2018-08-22T18:36:29.963Z,69.10
2018-08-22T18:39:09.043Z,68.90
2018-08-22T18:41:38.171Z,68.80
2018-08-22T18:44:07.790Z,69.20
2018-08-22T18:46:37.285Z,70.80
2018-08-22T18:49:06.757Z,71.40
2018-08-22T18:51:35.896Z,70.20
2018-08-22T18:54:05.469Z,70.10
2018-08-22T18:56:34.446Z,71.40
2018-08-22T18:59:35.145Z,70.60
2018-08-22T19:02:04.878Z,71.30
2018-08-22T19:04:34.017Z,71.50
2018-08-22T19:07:03.289Z,72.10
2018-08-22T19:09:32.675Z,71.20
2018-08-22T19:12:01.998Z,72.70
2018-08-22T19:14:42.083Z,72.00
2018-08-22T19:17:11.467Z,72.40
2018-08-22T19:19:43.158Z,72.70
2018-08-22T19:22:13.418Z,73.30
2018-08-22T19:24:57.014Z,73.00
2018-08-22T19:27:26.006Z,73.10
2018-08-22T19:29:54.914Z,73.10
2018-08-22T19:32:24.074Z,73.30
2018-08-22T19:34:55.857Z,74.20
2018-08-22T19:37:25.886Z,73.90
2018-08-22T19:40:00.878Z,75.60
2018-08-22T19:42:31.187Z,76.00
2018-08-22T19:45:00.373Z,75.00
2018-08-22T19:47:29.367Z,74.90
2018-08-22T19:49:59.509Z,75.30
2018-08-22T19:52:29.293Z,76.00
2018-08-22T19:54:58.466Z,76.00
2018-08-22T19:57:30.975Z,76.40
2018-08-22T20:00:00.017Z,76.90
2018-08-22T20:02:29.110Z,76.60
2018-08-22T20:04:58.129Z,76.60
2018-08-22T20:07:27.142Z,77.10
2018-08-22T20:09:56.227Z,77.10
2018-08-22T20:12:37.122Z,77.30
2018-08-22T20:15:06.130Z,77.30
2018-08-22T20:17:35.109Z,78.10
2018-08-22T20:20:04.195Z,77.80
2018-08-22T20:22:44.821Z,77.70
2018-08-22T20:25:14.960Z,77.80
2018-08-22T20:27:43.940Z,77.90
2018-08-22T20:30:18.336Z,78.00
2018-08-22T20:33:00.271Z,78.30
2018-08-22T20:35:33.150Z,77.80
2018-08-22T20:38:04.421Z,78.50
2018-08-22T20:40:34.195Z,78.70
2018-08-22T20:43:04.357Z,79.10
2018-08-22T20:45:37.564Z,79.60
2018-08-22T20:48:12.499Z,80.30
2018-08-22T20:50:44.387Z,80.30
2018-08-22T20:53:16.961Z,80.20
2018-08-22T20:55:46.170Z,80.60
2018-08-22T20:58:19.755Z,81.00
2018-08-22T21:00:48.924Z,81.10
2018-08-22T21:03:19.340Z,80.90
2018-08-22T21:05:48.338Z,81.10
2018-08-22T21:08:17.634Z,81.40
2018-08-22T21:13:16.225Z,81.50
2018-08-22T21:15:45.621Z,82.20
2018-08-22T21:18:15.435Z,82.70
2018-08-22T21:20:44.402Z,82.90
2018-08-22T21:23:13.390Z,83.10
2018-08-22T21:25:44.806Z,83.30
2018-08-22T21:28:14.426Z,83.00
2018-08-22T21:30:58.985Z,83.00
2018-08-22T21:33:29.350Z,83.10
2018-08-22T21:36:00.306Z,83.30
2018-08-22T21:38:29.297Z,83.20
2018-08-22T21:40:58.404Z,81.20
2018-08-22T21:43:27.633Z,82.00
2018-08-22T21:45:56.649Z,82.50
2018-08-22T21:48:26.818Z,83.40
2018-08-22T21:50:55.808Z,83.80
2018-08-22T21:53:25.078Z,84.00
2018-08-22T21:55:54.124Z,84.10
2018-08-22T21:58:23.131Z,84.70
2018-08-22T22:00:52.989Z,84.90
2018-08-22T22:03:27.202Z,85.00
2018-08-22T22:06:00.453Z,85.80
2018-08-22T22:08:29.624Z,85.30
2018-08-22T22:11:01.529Z,85.50
2018-08-22T22:13:30.789Z,85.70
2018-08-22T22:16:01.098Z,85.90
2018-08-22T22:18:33.017Z,85.30
2018-08-22T22:21:07.552Z,86.60
2018-08-22T22:23:42.476Z,86.10
2018-08-22T22:26:11.698Z,86.30
2018-08-22T22:28:41.200Z,87.10
2018-08-22T22:31:12.520Z,87.30
2018-08-22T22:33:47.807Z,87.90
2018-08-22T22:36:17.103Z,87.60
2018-08-22T22:38:46.228Z,88.40
2018-08-22T22:41:15.216Z,88.30
2018-08-22T22:43:44.199Z,89.00
2018-08-22T22:46:13.162Z,88.60
2018-08-22T22:48:43.113Z,88.80
2018-08-22T22:51:12.148Z,88.80
2018-08-22T22:53:41.169Z,88.80
2018-08-22T22:56:10.276Z,89.00
2018-08-22T22:58:45.996Z,89.30
2018-08-22T23:01:15.129Z,89.00
2018-08-22T23:03:44.088Z,88.80
2018-08-22T23:06:13.112Z,89.30
2018-08-22T23:08:42.165Z,89.30
2018-08-22T23:11:11.305Z,89.60
2018-08-22T23:13:40.300Z,90.00
2018-08-22T23:16:09.534Z,90.20
2018-08-22T23:18:38.568Z,90.30
2018-08-22T23:21:07.762Z,90.30
2018-08-22T23:23:38.406Z,90.10
2018-08-22T23:26:24.786Z,90.10
2018-08-22T23:28:53.905Z,90.00
2018-08-22T23:31:22.861Z,90.20
2018-08-22T23:33:51.813Z,89.70
2018-08-22T23:36:20.773Z,89.60
2018-08-22T23:38:49.726Z,88.10
2018-08-22T23:41:18.716Z,89.20
2018-08-22T23:43:50.960Z,88.70
2018-08-22T23:46:20.204Z,89.50
2018-08-22T23:48:55.240Z,89.90
2018-08-22T23:51:24.219Z,89.90
2018-08-22T23:53:56.734Z,90.30
2018-08-22T23:56:26.847Z,90.50
2018-08-22T23:58:56.496Z,90.50
